Flag for USA

Past Weather in 42°24'18.0"N, 86°14'39.1"W, USA — Yesterday and Last 2 Weeks

Currently: 69 °F. Sunny. (Weather station: Tulip City Airport, USA). See more current weather

Past Weather in 42°24'18.0"N, 86°14'39.1"W — Graph

°F

42°24'18.0"N, 86°14'39.1"W Temperature Yesterday

Maximum temperature yesterday: 67 °F (at 1:53 pm)
Minimum temperature yesterday: 38 °F (at 5:15 am)
Average temperature yesterday: 49 °F

High & Low Weather Summary for the Past Weeks

 TemperatureHumidityPressure
High77 °F (Sep 20, 3:53 pm)100% (Oct 4, 8:53 am)30.55 "Hg (Oct 4, 8:53 am)
Low36 °F (Oct 3, 4:53 am)35% (Oct 1, 3:53 pm)29.65 "Hg (Sep 25, 5:01 am)
Average55 °F76%30.11 "Hg
* Reported Sep 20 11:53 am — Oct 5 11:53 am, 42°24'18.0"N, 86°14'39.1"W. Weather by CustomWeather, © 2022

Note: Actual official high and low records may vary slightly from our data, if they occured in-between our weather recording intervals... More about our weather records

42°24'18.0"N, 86°14'39.1"W Weather History for the Previous 24 Hours

Scroll right to see more
 ConditionsComfort  
Time TempWeatherWind HumidityBarometerVisibility
11:53 am
Wed, Oct 5
69 °FSunny.7 mph53%30.13 "Hg10 mi
10:53 am65 °FSunny.7 mph73%30.14 "Hg10 mi
9:53 am58 °FSunny.No wind90%30.13 "Hg10 mi
8:53 am49 °FFog.No wind97%30.14 "Hg6 mi
7:53 am47 °FFog.No wind97%30.14 "Hg5 mi
6:53 am46 °FFog.No wind96%30.07 "Hg6 mi
5:35 am45 °FFog.No wind97%30.12 "Hg1 mi
4:53 am46 °FFog.No wind96%30.13 "Hg1 mi
4:37 am46 °FFog.3 mph96%30.13 "Hg3 mi
4:22 am46 °FFog.3 mph93%30.13 "Hg1 mi
3:42 am45 °FFog.No wind97%30.13 "Hg0 mi
3:25 am45 °FFog.No wind97%30.14 "Hg0 mi
2:58 am45 °FFog.No wind93%30.14 "Hg1 mi
2:20 am44 °FFog.No wind96%30.15 "Hg1 mi
1:53 am46 °FClear.No wind93%30.15 "Hg7 mi
1:19 am45 °FFog.No wind97%30.15 "Hg2 mi
12:53 am45 °FFog.No wind93%30.16 "Hg6 mi
12:37 am47 °FFog.No wind93%30.16 "Hg2 mi
12:22 am46 °FFog.No wind93%30.16 "Hg5 mi
11:56 pm
Tue, Oct 4
48 °FFog.No wind96%30.17 "Hg1 mi
10:53 pm49 °FFog.No wind97%30.17 "Hg4 mi
10:08 pm50 °FClear.No wind96%30.17 "Hg9 mi
8:53 pm51 °FClear.No wind96%30.19 "Hg10 mi
6:53 pm60 °FSunny.5 mph72%30.19 "Hg10 mi
5:53 pm64 °FSunny.6 mph63%30.18 "Hg10 mi
4:53 pm65 °FSunny.6 mph59%30.13 "Hg10 mi
3:53 pm66 °FSunny.9 mph59%30.15 "Hg10 mi
2:53 pm67 °FSunny.9 mph53%30.22 "Hg10 mi
Weather by CustomWeather, © 2022

See weather overview